Time;durP1;ratioP1;P1;durP2;ratioP2;P2;SDS_P1;SDS_P2;PMS_P1;PMS_P2;Temp;Humidity;BMP_temperature;BMP_pressure;BME280_temperature;BME280_humidity;BME280_pressure;Samples;Min_cycle;Max_cycle;Signal;HPM_P1;HPM_P2
2022/04/30 00:00:57;;;;;;;16.57;8.57;;;6.20;99.90;;;;;;4891645;29;20092;-82
2022/04/30 00:03:27;;;;;;;18.53;8.83;;;6.20;99.90;;;;;;4881237;29;20083;-83
2022/04/30 00:05:57;;;;;;;18.90;8.77;;;6.10;99.90;;;;;;4888981;29;20055;-82
2022/04/30 00:08:24;;;;;;;16.03;9.53;;;6.10;99.90;;;;;;4887056;29;20041;-82
2022/04/30 00:10:50;;;;;;;17.97;9.27;;;6.10;99.90;;;;;;4886100;29;20115;-83
2022/04/30 00:13:16;;;;;;;24.20;9.83;;;6.10;99.90;;;;;;4881535;29;20059;-82
2022/04/30 00:15:41;;;;;;;22.00;10.70;;;6.10;99.90;;;;;;4874955;29;20052;-82
2022/04/30 00:18:10;;;;;;;20.33;9.50;;;6.00;99.90;;;;;;4886814;29;20516;-82
2022/04/30 00:20:37;;;;;;;17.90;9.53;;;6.00;99.90;;;;;;4865368;29;20044;-83
2022/04/30 00:23:19;;;;;;;19.30;8.90;;;6.00;99.90;;;;;;4896190;29;20044;-82
2022/04/30 00:25:54;;;;;;;17.65;9.75;;;6.00;99.90;;;;;;4880977;29;20127;-82
2022/04/30 00:28:22;;;;;;;20.33;9.47;;;5.90;99.90;;;;;;4896205;29;20058;-82
2022/04/30 00:30:49;;;;;;;19.53;9.73;;;6.00;99.90;;;;;;4892122;29;20048;-83
2022/04/30 00:33:15;;;;;;;17.77;8.97;;;5.90;99.90;;;;;;4883359;29;20373;-82
2022/04/30 00:35:42;;;;;;;16.03;9.50;;;5.90;99.90;;;;;;4896235;29;20044;-82
2022/04/30 00:38:08;;;;;;;19.00;9.87;;;6.00;99.90;;;;;;4888406;29;20548;-83
2022/04/30 00:40:34;;;;;;;15.53;9.50;;;5.90;99.90;;;;;;4890863;29;20040;-82
2022/04/30 00:43:00;;;;;;;19.83;9.93;;;5.90;99.90;;;;;;4879664;29;20488;-83
2022/04/30 00:45:25;;;;;;;19.40;9.33;;;5.90;99.90;;;;;;4848202;29;20107;-82
2022/04/30 00:47:51;;;;;;;19.53;10.10;;;5.90;99.90;;;;;;4868084;29;20096;-82
2022/04/30 00:50:21;;;;;;;19.13;10.87;;;5.90;99.90;;;;;;4893625;29;20052;-82
2022/04/30 00:52:48;;;;;;;18.30;9.33;;;5.90;99.90;;;;;;4890297;29;20181;-82
2022/04/30 00:55:19;;;;;;;20.50;10.10;;;5.80;99.90;;;;;;4892667;29;20516;-82
2022/04/30 00:57:45;;;;;;;14.60;8.97;;;5.90;99.90;;;;;;4878691;29;20036;-82
2022/04/30 01:00:12;;;;;;;17.13;9.80;;;5.90;99.90;;;;;;4875209;29;20767;-82
2022/04/30 01:02:38;;;;;;;16.13;9.50;;;5.90;99.90;;;;;;4880842;29;20056;-82
2022/04/30 01:05:04;;;;;;;16.97;8.97;;;5.90;99.90;;;;;;4884064;29;20047;-83
2022/04/30 01:07:31;;;;;;;16.57;9.07;;;5.90;99.90;;;;;;4883722;29;20044;-82
2022/04/30 01:09:57;;;;;;;14.73;8.90;;;5.80;99.90;;;;;;4884037;29;20045;-82
2022/04/30 01:12:23;;;;;;;18.93;9.50;;;5.80;99.90;;;;;;4899768;29;20123;-82
2022/04/30 01:14:52;;;;;;;18.30;10.07;;;5.90;99.90;;;;;;4899474;29;20436;-82
2022/04/30 01:17:20;;;;;;;19.43;10.57;;;5.90;99.90;;;;;;4895989;29;20112;-82
2022/04/30 01:19:47;;;;;;;17.40;9.63;;;5.80;99.90;;;;;;4885138;29;20059;-82
2022/04/30 01:22:41;;;;;;;18.47;9.50;;;5.90;99.90;;;;;;4896918;29;20052;-82
2022/04/30 01:25:07;;;;;;;15.40;9.10;;;5.90;99.90;;;;;;4893608;29;20169;-82
2022/04/30 01:27:36;;;;;;;18.57;9.53;;;5.90;99.90;;;;;;4887312;29;20072;-82
2022/04/30 01:30:04;;;;;;;19.40;9.50;;;5.90;99.90;;;;;;4896407;29;20445;-82
2022/04/30 01:38:10;;;;;;;17.23;9.20;;;5.80;99.90;;;;;;4884787;29;20420;-82
2022/04/30 01:40:36;;;;;;;16.90;8.87;;;5.90;99.90;;;;;;4877581;29;20091;-82
2022/04/30 01:43:05;;;;;;;16.40;8.77;;;5.80;99.90;;;;;;4898748;29;20037;-81
2022/04/30 01:45:33;;;;;;;15.33;9.37;;;5.80;99.90;;;;;;4882144;29;20053;-82
2022/04/30 01:48:00;;;;;;;21.03;9.40;;;5.80;99.90;;;;;;4883288;29;20051;-82
2022/04/30 01:50:26;;;;;;;19.43;9.63;;;5.80;99.90;;;;;;4867925;29;20047;-82
2022/04/30 01:52:52;;;;;;;14.70;9.43;;;5.70;99.90;;;;;;4888967;29;20053;-82
2022/04/30 01:55:18;;;;;;;16.50;9.33;;;5.70;99.90;;;;;;4891954;29;20447;-82
2022/04/30 01:57:44;;;;;;;15.47;8.20;;;5.70;99.90;;;;;;4882721;29;20123;-82
2022/04/30 02:00:14;;;;;;;17.10;8.50;;;5.70;99.90;;;;;;4888355;29;20052;-82
2022/04/30 02:02:45;;;;;;;16.73;8.77;;;5.70;99.90;;;;;;4882542;29;20044;-83
2022/04/30 02:05:13;;;;;;;16.50;8.82;;;5.60;99.90;;;;;;4892550;29;20055;-82
2022/04/30 02:07:52;;;;;;;15.50;8.90;;;5.60;99.90;;;;;;4888641;29;20207;-83
2022/04/30 02:10:19;;;;;;;16.97;8.57;;;5.70;99.90;;;;;;4899070;29;20041;-82
2022/04/30 02:12:45;;;;;;;16.57;9.53;;;5.60;99.90;;;;;;4893099;29;20036;-82
2022/04/30 02:15:14;;;;;;;15.23;9.27;;;5.60;99.90;;;;;;4881691;29;20520;-82
2022/04/30 02:17:41;;;;;;;17.13;9.17;;;5.60;99.90;;;;;;4894079;29;20045;-82
2022/04/30 02:20:24;;;;;;;18.17;9.63;;;5.60;99.90;;;;;;4898489;29;20119;-82
2022/04/30 02:22:52;;;;;;;19.03;9.37;;;5.60;99.90;;;;;;4896785;29;20045;-82
2022/04/30 02:25:19;;;;;;;16.47;9.93;;;5.60;99.90;;;;;;4882969;29;20421;-82
2022/04/30 02:27:49;;;;;;;16.47;9.10;;;5.60;99.90;;;;;;4882808;29;20377;-83
2022/04/30 02:30:21;;;;;;;15.07;8.67;;;5.50;99.90;;;;;;4882353;29;20083;-82
2022/04/30 02:33:00;;;;;;;16.67;9.03;;;5.60;99.90;;;;;;4867847;29;20167;-82
2022/04/30 02:35:28;;;;;;;19.73;9.60;;;5.60;99.90;;;;;;4897941;29;20123;-82
2022/04/30 02:37:57;;;;;;;14.90;8.50;;;5.60;99.90;;;;;;4882249;29;20104;-82
2022/04/30 02:40:24;;;;;;;15.43;9.03;;;5.60;99.90;;;;;;4878925;29;20041;-82
2022/04/30 02:42:51;;;;;;;19.10;9.00;;;5.60;99.90;;;;;;4881882;29;20076;-82
2022/04/30 02:45:18;;;;;;;15.37;8.73;;;5.60;99.90;;;;;;4892456;29;20036;-82
2022/04/30 02:47:48;;;;;;;14.87;8.40;;;5.50;99.90;;;;;;4882138;29;20449;-83
2022/04/30 02:50:15;;;;;;;16.20;8.97;;;5.60;99.90;;;;;;4898608;29;20051;-82
2022/04/30 02:52:42;;;;;;;19.13;8.80;;;5.60;99.90;;;;;;4870109;29;20462;-82
2022/04/30 02:55:09;;;;;;;17.13;9.50;;;5.60;99.90;;;;;;4861886;29;20045;-82
2022/04/30 03:00:39;;;;;;;16.23;9.07;;;5.60;99.90;;;;;;4886347;29;20049;-82
2022/04/30 03:03:10;;;;;;;14.88;9.52;;;5.50;99.90;;;;;;4878779;29;20045;-82
2022/04/30 03:05:36;;;;;;;19.37;8.70;;;5.60;99.90;;;;;;4893127;29;20048;-82
2022/04/30 03:08:12;;;;;;;14.70;8.73;;;5.60;99.90;;;;;;4881184;29;20093;-82
2022/04/30 03:10:39;;;;;;;17.80;8.73;;;5.60;99.90;;;;;;4887466;29;20080;-82
2022/04/30 03:13:05;;;;;;;15.63;8.80;;;5.60;99.90;;;;;;4881505;29;20522;-82
2022/04/30 03:15:35;;;;;;;13.13;7.97;;;5.60;99.90;;;;;;4881682;29;20132;-82
2022/04/30 03:23:33;;;;;;;14.70;8.37;;;5.60;99.90;;;;;;4892196;29;20036;-82
2022/04/30 03:25:59;;;;;;;14.30;8.40;;;5.50;99.90;;;;;;4872601;29;20131;-82
2022/04/30 03:28:25;;;;;;;17.33;9.00;;;5.50;99.90;;;;;;4870235;29;20132;-82
2022/04/30 03:30:50;;;;;;;16.00;8.97;;;5.50;99.90;;;;;;4886672;29;20132;-82
2022/04/30 03:33:16;;;;;;;13.27;7.90;;;5.60;99.90;;;;;;4871072;29;20045;-82
2022/04/30 03:35:42;;;;;;;15.83;8.13;;;5.50;99.90;;;;;;4865746;29;20404;-82
2022/04/30 03:38:09;;;;;;;13.13;7.93;;;5.50;99.90;;;;;;4882874;29;20044;-82
2022/04/30 03:40:35;;;;;;;14.27;7.80;;;5.50;99.90;;;;;;4891446;29;20047;-82
2022/04/30 03:43:02;;;;;;;15.50;8.37;;;5.50;99.90;;;;;;4876027;29;20079;-82
2022/04/30 03:45:28;;;;;;;12.37;8.00;;;5.40;99.90;;;;;;4868465;29;20477;-82
2022/04/30 03:47:54;;;;;;;19.03;8.40;;;5.30;99.90;;;;;;4891423;29;20084;-82
2022/04/30 03:50:19;;;;;;;15.43;7.63;;;5.30;99.90;;;;;;4891369;29;20048;-83
2022/04/30 03:52:45;;;;;;;13.03;8.23;;;5.40;99.90;;;;;;4881085;29;20876;-82
2022/04/30 03:55:11;;;;;;;18.27;7.87;;;5.30;99.90;;;;;;4896956;29;20420;-82
2022/04/30 03:57:37;;;;;;;14.83;7.53;;;5.30;99.90;;;;;;4896622;29;20048;-82
2022/04/30 04:00:06;;;;;;;12.33;7.80;;;5.30;99.90;;;;;;4864997;29;20048;-82
2022/04/30 04:02:33;;;;;;;13.23;7.30;;;5.30;99.90;;;;;;4896540;29;20053;-82
2022/04/30 04:04:59;;;;;;;11.13;7.73;;;5.30;99.90;;;;;;4889237;29;20056;-82
2022/04/30 04:07:26;;;;;;;15.23;8.47;;;5.20;99.90;;;;;;4859857;29;20211;-82
2022/04/30 04:09:52;;;;;;;11.47;7.43;;;5.30;99.90;;;;;;4876403;29;20040;-82
2022/04/30 04:12:17;;;;;;;10.13;6.87;;;5.20;99.90;;;;;;4880529;29;20041;-82
2022/04/30 04:17:40;;;;;;;11.23;8.03;;;5.20;99.90;;;;;;4875669;29;20492;-82
2022/04/30 04:20:11;;;;;;;13.50;7.97;;;5.20;99.90;;;;;;4897152;29;20491;-81
2022/04/30 04:22:37;;;;;;;9.93;7.13;;;5.10;99.90;;;;;;4886108;29;20377;-82
2022/04/30 04:27:53;;;;;;;11.63;7.10;;;5.10;99.90;;;;;;4894046;29;20052;-81
2022/04/30 04:30:20;;;;;;;11.33;7.17;;;5.20;99.90;;;;;;4892346;29;20076;-81
2022/04/30 04:32:46;;;;;;;15.47;7.07;;;5.00;99.90;;;;;;4887711;29;20052;-82
2022/04/30 04:35:14;;;;;;;11.27;7.17;;;5.00;99.90;;;;;;4876532;29;20507;-81
2022/04/30 04:37:39;;;;;;;10.77;6.73;;;5.10;99.90;;;;;;4871810;29;20408;-81
2022/04/30 04:40:07;;;;;;;13.67;7.20;;;5.10;99.90;;;;;;4891601;29;20051;-80
2022/04/30 04:42:33;;;;;;;17.30;7.93;;;5.10;99.90;;;;;;4857577;29;20045;-80
2022/04/30 04:44:59;;;;;;;12.80;7.10;;;5.10;99.90;;;;;;4871857;29;20059;-80
2022/04/30 04:47:25;;;;;;;16.90;8.00;;;5.10;99.90;;;;;;4877855;29;20040;-80
2022/04/30 04:49:51;;;;;;;13.67;7.50;;;5.10;99.90;;;;;;4879652;29;20064;-80
2022/04/30 04:52:17;;;;;;;14.90;8.27;;;5.20;99.90;;;;;;4869516;29;20041;-80
2022/04/30 04:54:42;;;;;;;15.00;8.33;;;5.20;99.90;;;;;;4894659;29;20108;-80
2022/04/30 04:57:08;;;;;;;14.73;8.93;;;5.30;99.90;;;;;;4890700;29;20070;-80
2022/04/30 04:59:34;;;;;;;12.23;8.13;;;5.30;99.90;;;;;;4869770;29;20818;-81
2022/04/30 05:02:00;;;;;;;15.33;8.67;;;5.30;99.90;;;;;;4876196;29;20112;-80
2022/04/30 05:04:26;;;;;;;14.47;8.23;;;5.40;99.90;;;;;;4889298;29;20056;-81
2022/04/30 05:06:51;;;;;;;14.13;8.70;;;5.50;99.90;;;;;;4895207;29;20048;-81
2022/04/30 05:09:17;;;;;;;15.33;8.67;;;5.60;99.90;;;;;;4895420;29;20439;-81
2022/04/30 05:11:43;;;;;;;12.40;8.63;;;5.60;99.90;;;;;;4895793;29;20115;-80
2022/04/30 05:14:09;;;;;;;12.37;8.43;;;5.80;99.90;;;;;;4880012;29;20049;-81
2022/04/30 05:16:35;;;;;;;16.27;8.00;;;5.70;99.90;;;;;;4846273;29;20053;-81
2022/04/30 05:19:00;;;;;;;12.63;7.40;;;5.80;99.90;;;;;;4886328;29;20060;-81
2022/04/30 05:21:26;;;;;;;13.83;8.33;;;5.90;99.90;;;;;;4894899;29;20048;-81
2022/04/30 05:23:52;;;;;;;15.17;8.40;;;6.00;99.90;;;;;;4891764;29;20041;-81
2022/04/30 05:26:17;;;;;;;14.50;8.40;;;6.10;99.90;;;;;;4868256;29;20045;-81
2022/04/30 05:28:43;;;;;;;15.83;8.50;;;6.10;99.90;;;;;;4879416;29;20504;-81
2022/04/30 05:31:09;;;;;;;16.67;8.43;;;6.30;99.90;;;;;;4879234;29;20104;-81
2022/04/30 05:33:35;;;;;;;14.00;9.03;;;6.30;99.90;;;;;;4895571;29;20135;-80
2022/04/30 05:36:02;;;;;;;14.00;9.17;;;6.30;99.90;;;;;;4895249;29;20155;-81
2022/04/30 05:38:28;;;;;;;15.97;8.50;;;6.40;99.90;;;;;;4879945;29;20040;-81
2022/04/30 05:40:54;;;;;;;14.17;8.40;;;6.40;99.90;;;;;;4879745;29;20512;-81
2022/04/30 05:43:19;;;;;;;12.77;8.37;;;6.60;99.90;;;;;;4879895;29;20775;-80
2022/04/30 05:45:45;;;;;;;13.13;9.10;;;6.60;99.90;;;;;;4895130;29;20045;-80
2022/04/30 05:48:11;;;;;;;18.37;8.07;;;6.70;99.90;;;;;;4879198;29;20051;-81
2022/04/30 05:50:37;;;;;;;16.67;9.23;;;6.70;99.90;;;;;;4882702;29;20392;-80
2022/04/30 05:53:04;;;;;;;15.20;9.10;;;6.80;99.90;;;;;;4898213;29;20049;-80
2022/04/30 05:55:30;;;;;;;15.43;8.37;;;6.90;99.90;;;;;;4880519;29;20415;-80
2022/04/30 05:57:56;;;;;;;15.80;9.30;;;7.00;99.90;;;;;;4882504;29;20048;-80
2022/04/30 06:00:22;;;;;;;16.53;9.20;;;7.00;99.90;;;;;;4898920;29;20044;-80
2022/04/30 06:02:48;;;;;;;12.57;8.40;;;7.10;99.90;;;;;;4867182;29;20040;-80
2022/04/30 06:05:14;;;;;;;14.87;8.43;;;7.20;99.90;;;;;;4867445;29;20069;-80
2022/04/30 06:07:40;;;;;;;14.60;8.83;;;7.20;99.90;;;;;;4882306;29;20111;-80
2022/04/30 06:10:06;;;;;;;14.33;8.53;;;7.30;99.90;;;;;;4885519;29;20049;-80
2022/04/30 06:12:34;;;;;;;12.33;8.20;;;7.40;99.90;;;;;;4894665;29;20055;-81
2022/04/30 06:15:01;;;;;;;12.90;8.37;;;7.50;99.90;;;;;;4897314;29;20075;-81
2022/04/30 06:17:27;;;;;;;14.07;8.67;;;7.70;99.90;;;;;;4880499;29;20072;-81
2022/04/30 06:19:52;;;;;;;15.60;7.77;;;7.80;99.90;;;;;;4887912;29;20113;-81
2022/04/30 06:22:18;;;;;;;9.63;7.30;;;8.10;99.90;;;;;;4882307;29;20083;-80
2022/04/30 06:24:44;;;;;;;13.83;7.00;;;8.20;99.90;;;;;;4882710;29;20127;-81
2022/04/30 06:27:10;;;;;;;10.97;7.20;;;8.40;99.90;;;;;;4895378;29;20049;-81
2022/04/30 06:29:35;;;;;;;9.27;6.97;;;8.50;99.90;;;;;;4883514;29;20075;-81
2022/04/30 06:32:02;;;;;;;11.70;6.83;;;8.70;99.90;;;;;;4883729;29;20048;-81
2022/04/30 06:34:27;;;;;;;9.97;7.00;;;8.90;99.90;;;;;;4899146;29;20503;-81
2022/04/30 06:36:53;;;;;;;8.30;6.53;;;9.00;99.90;;;;;;4865937;29;20049;-80
2022/04/30 06:39:19;;;;;;;8.67;6.50;;;9.00;99.90;;;;;;4892542;29;20045;-81
2022/04/30 06:41:45;;;;;;;9.70;6.33;;;9.10;99.90;;;;;;4871562;29;20189;-81
2022/04/30 06:44:11;;;;;;;14.47;6.60;;;9.10;99.90;;;;;;4864961;29;20058;-81
2022/04/30 06:46:37;;;;;;;10.33;6.50;;;9.20;99.90;;;;;;4868640;29;20496;-80
2022/04/30 06:49:03;;;;;;;12.63;7.47;;;9.30;99.90;;;;;;4891696;29;20482;-82
2022/04/30 06:51:29;;;;;;;7.23;5.43;;;9.40;99.90;;;;;;4862171;29;20078;-81
2022/04/30 06:59:23;;;;;;;8.83;5.40;;;9.80;99.90;;;;;;4885505;29;20124;-79
2022/04/30 07:02:03;;;;;;;7.60;4.57;;;10.10;99.90;;;;;;4879786;29;20128;-80
2022/04/30 07:04:32;;;;;;;9.53;6.00;;;10.20;99.90;;;;;;4868897;29;20049;-80
2022/04/30 07:06:59;;;;;;;11.97;4.90;;;10.20;99.90;;;;;;4896242;29;20053;-80
2022/04/30 07:09:28;;;;;;;10.27;5.23;;;10.20;99.90;;;;;;4858026;29;20052;-80
2022/04/30 07:11:54;;;;;;;8.97;4.87;;;10.30;99.90;;;;;;4890858;29;20121;-82
2022/04/30 07:14:20;;;;;;;7.90;4.53;;;10.20;99.90;;;;;;4872369;29;20064;-80
2022/04/30 07:16:46;;;;;;;9.30;4.80;;;10.20;99.90;;;;;;4897700;29;20497;-80
2022/04/30 07:19:11;;;;;;;8.60;4.63;;;10.20;99.90;;;;;;4898230;29;20996;-81
2022/04/30 07:21:37;;;;;;;9.50;5.10;;;10.10;99.90;;;;;;4896497;29;20104;-81
2022/04/30 07:24:03;;;;;;;6.83;4.70;;;10.00;99.90;;;;;;4893476;29;20135;-79
2022/04/30 07:26:29;;;;;;;6.87;4.50;;;9.80;99.90;;;;;;4893250;29;20096;-81
2022/04/30 07:28:55;;;;;;;10.10;6.03;;;9.70;99.90;;;;;;4880397;29;20533;-79
2022/04/30 07:31:22;;;;;;;8.77;5.33;;;9.60;99.90;;;;;;4880280;29;20041;-80
2022/04/30 07:33:49;;;;;;;8.90;5.30;;;9.50;99.90;;;;;;4895357;29;20040;-79
2022/04/30 07:36:15;;;;;;;8.47;5.57;;;9.50;99.90;;;;;;4889060;29;20123;-81
2022/04/30 07:38:40;;;;;;;12.60;5.90;;;9.50;99.90;;;;;;4895533;29;20044;-80
2022/04/30 07:41:06;;;;;;;9.70;5.13;;;9.50;99.90;;;;;;4868128;29;20060;-81
2022/04/30 07:43:32;;;;;;;9.57;5.43;;;9.50;99.90;;;;;;4878697;29;20044;-81
2022/04/30 07:45:58;;;;;;;10.47;5.50;;;9.50;99.90;;;;;;4862156;29;20045;-81
2022/04/30 07:48:24;;;;;;;6.83;5.17;;;9.50;99.90;;;;;;4893650;29;20173;-82
2022/04/30 07:50:49;;;;;;;9.40;5.73;;;9.60;99.90;;;;;;4882116;29;20108;-82
2022/04/30 07:53:16;;;;;;;6.77;5.27;;;9.70;99.90;;;;;;4896155;29;20522;-82
2022/04/30 07:55:43;;;;;;;8.37;5.30;;;9.70;99.90;;;;;;4895721;29;20044;-81
2022/04/30 07:58:09;;;;;;;6.27;5.13;;;9.80;99.90;;;;;;4896364;29;20044;-81
2022/04/30 08:00:36;;;;;;;10.67;5.57;;;9.70;99.90;;;;;;4894012;29;20044;-81
2022/04/30 08:03:03;;;;;;;9.03;5.17;;;9.70;99.90;;;;;;4880384;29;20412;-81
2022/04/30 08:05:29;;;;;;;11.33;5.70;;;9.80;99.90;;;;;;4894245;29;20132;-80
2022/04/30 08:07:55;;;;;;;11.80;5.77;;;9.90;99.90;;;;;;4880572;29;20047;-80
2022/04/30 08:10:22;;;;;;;10.40;5.93;;;9.90;99.90;;;;;;4880297;29;20036;-81
2022/04/30 08:12:54;;;;;;;7.70;4.63;;;10.00;99.90;;;;;;4879749;29;20047;-82
2022/04/30 08:15:24;;;;;;;8.18;4.93;;;10.00;99.90;;;;;;4895551;29;20048;-81
2022/04/30 08:17:51;;;;;;;8.50;5.63;;;10.20;99.90;;;;;;4895953;29;20071;-82
2022/04/30 08:20:17;;;;;;;6.60;4.80;;;10.40;99.90;;;;;;4895474;29;20068;-81
2022/04/30 08:22:43;;;;;;;8.17;5.60;;;10.40;99.90;;;;;;4879984;29;20098;-81
2022/04/30 08:25:09;;;;;;;8.33;5.90;;;10.50;99.90;;;;;;4895618;29;20056;-82
2022/04/30 08:27:34;;;;;;;6.83;5.47;;;10.60;99.90;;;;;;4895501;29;20087;-81
2022/04/30 08:30:00;;;;;;;10.27;5.40;;;10.60;99.90;;;;;;4882362;29;20049;-81
2022/04/30 08:32:26;;;;;;;8.80;5.43;;;10.60;99.90;;;;;;4895943;29;20048;-81
2022/04/30 08:34:53;;;;;;;8.07;5.87;;;10.50;99.90;;;;;;4890893;29;20052;-81
2022/04/30 08:37:19;;;;;;;8.63;5.93;;;10.40;99.90;;;;;;4891459;29;20123;-82
2022/04/30 08:39:45;;;;;;;10.13;6.00;;;10.20;99.90;;;;;;4880399;29;20518;-81
2022/04/30 08:42:14;;;;;;;8.73;5.63;;;10.40;99.90;;;;;;4895631;29;20048;-82
2022/04/30 08:44:40;;;;;;;8.37;6.00;;;10.50;99.90;;;;;;4892108;29;20152;-82
2022/04/30 08:47:10;;;;;;;10.37;5.70;;;10.50;99.90;;;;;;4845821;29;20131;-81
2022/04/30 08:49:40;;;;;;;9.87;5.97;;;10.60;99.90;;;;;;4880368;29;20072;-82
2022/04/30 08:52:06;;;;;;;9.70;6.37;;;10.60;99.90;;;;;;4895586;29;20048;-81
2022/04/30 08:54:32;;;;;;;9.07;5.73;;;10.80;99.90;;;;;;4860320;29;20056;-82
2022/04/30 08:56:58;;;;;;;9.57;6.03;;;11.10;99.90;;;;;;4895827;29;20052;-82
2022/04/30 08:59:24;;;;;;;10.10;5.80;;;11.30;99.90;;;;;;4895983;29;20123;-82
2022/04/30 09:01:52;;;;;;;9.80;6.43;;;11.60;99.90;;;;;;4895718;29;20044;-82
2022/04/30 09:04:19;;;;;;;9.27;6.03;;;11.70;99.90;;;;;;4894521;29;20041;-82
2022/04/30 09:06:53;;;;;;;11.63;6.40;;;11.80;99.90;;;;;;4876789;29;20045;-82
2022/04/30 09:09:26;;;;;;;11.07;5.90;;;11.60;99.90;;;;;;4879253;29;20052;-82
2022/04/30 09:11:57;;;;;;;11.40;6.20;;;11.60;99.90;;;;;;4895257;29;20056;-82
2022/04/30 09:14:27;;;;;;;11.38;5.90;;;11.50;99.90;;;;;;4892323;29;20049;-82
2022/04/30 09:17:07;;;;;;;8.03;6.20;;;11.50;99.90;;;;;;4861688;29;20049;-82
2022/04/30 09:19:44;;;;;;;14.53;5.60;;;11.40;99.90;;;;;;4886178;29;20097;-81
2022/04/30 09:22:10;;;;;;;9.73;6.10;;;11.40;99.90;;;;;;4866434;29;20057;-82
2022/04/30 09:24:49;;;;;;;9.23;6.57;;;11.40;99.90;;;;;;4882944;29;20049;-81
2022/04/30 09:27:16;;;;;;;11.80;6.30;;;11.30;99.90;;;;;;4900244;29;20445;-81
2022/04/30 09:29:42;;;;;;;11.00;6.27;;;11.30;99.90;;;;;;4900224;29;20045;-82
2022/04/30 09:32:08;;;;;;;7.60;5.23;;;11.30;99.90;;;;;;4884494;29;20212;-81
2022/04/30 09:37:42;;;;;;;10.13;4.50;;;11.00;99.90;;;;;;4896618;29;20052;-80
2022/04/30 09:40:14;;;;;;;9.67;5.07;;;11.00;99.90;;;;;;4883265;29;20578;-81
2022/04/30 09:42:45;;;;;;;9.00;5.10;;;11.00;99.90;;;;;;4884449;29;20047;-81
2022/04/30 09:45:22;;;;;;;8.43;5.67;;;10.90;99.90;;;;;;4881002;29;20044;-82
2022/04/30 09:47:49;;;;;;;8.43;5.57;;;11.00;99.90;;;;;;4877523;29;20735;-81
2022/04/30 09:56:06;;;;;;;7.67;5.00;;;11.00;99.90;;;;;;4845674;29;20054;-81
2022/04/30 09:58:36;;;;;;;8.77;5.73;;;11.10;99.90;;;;;;4875018;29;20116;-82
2022/04/30 10:01:04;;;;;;;8.43;5.47;;;11.10;99.90;;;;;;4899465;29;20561;-81
2022/04/30 10:03:31;;;;;;;8.87;5.93;;;11.20;99.90;;;;;;4899853;29;20130;-82
2022/04/30 10:06:04;;;;;;;10.63;5.40;;;11.20;99.90;;;;;;4876257;29;20044;-83
2022/04/30 10:08:34;;;;;;;9.57;5.50;;;11.20;99.90;;;;;;4868416;29;20037;-81
2022/04/30 10:11:42;;;;;;;8.47;5.50;;;11.30;99.90;;;;;;4881648;29;20041;-83
2022/04/30 10:14:54;;;;;;;9.00;5.47;;;11.30;99.90;;;;;;4873500;29;20048;-83
2022/04/30 10:17:26;;;;;;;11.33;5.80;;;11.50;99.90;;;;;;4878991;29;20063;-82
2022/04/30 10:20:16;;;;;;;9.52;5.75;;;11.50;99.90;;;;;;4884958;29;20397;-82
2022/04/30 10:22:57;;;;;;;10.10;5.70;;;11.60;99.90;;;;;;4902298;29;20055;-81
2022/04/30 10:25:35;;;;;;;8.27;6.20;;;11.60;99.90;;;;;;4890093;29;20048;-82
2022/04/30 10:28:17;;;;;;;8.30;5.87;;;11.70;99.90;;;;;;4899388;29;20105;-82
2022/04/30 10:30:44;;;;;;;12.00;6.00;;;11.80;99.90;;;;;;4899649;29;20109;-81
2022/04/30 10:33:11;;;;;;;6.90;5.20;;;12.00;99.90;;;;;;4898633;29;20127;-81
2022/04/30 10:35:44;;;;;;;7.93;5.80;;;12.10;99.90;;;;;;4890303;29;20096;-81
2022/04/30 10:38:11;;;;;;;9.77;6.00;;;12.10;99.90;;;;;;4893791;29;20112;-81
2022/04/30 10:40:38;;;;;;;8.40;5.67;;;12.30;99.90;;;;;;4885719;29;20095;-82
2022/04/30 10:43:16;;;;;;;10.13;6.47;;;12.30;99.90;;;;;;4895213;29;20041;-84
2022/04/30 10:45:42;;;;;;;8.43;5.90;;;12.40;99.90;;;;;;4874644;29;20072;-82
2022/04/30 10:48:09;;;;;;;10.50;6.30;;;12.30;99.90;;;;;;4891807;29;20075;-82
2022/04/30 10:50:35;;;;;;;10.13;6.30;;;12.50;99.90;;;;;;4899016;29;20044;-82
2022/04/30 10:53:06;;;;;;;8.03;6.07;;;12.50;99.90;;;;;;4878008;29;20053;-84
2022/04/30 10:55:32;;;;;;;7.87;6.40;;;12.30;99.90;;;;;;4852504;29;20072;-82
2022/04/30 10:57:59;;;;;;;9.90;6.63;;;12.30;99.90;;;;;;4898795;29;20512;-82
2022/04/30 11:00:25;;;;;;;9.07;6.40;;;12.30;99.90;;;;;;4882819;29;20049;-81
2022/04/30 11:02:50;;;;;;;7.37;5.80;;;12.20;99.90;;;;;;4898889;29;20052;-83
2022/04/30 11:05:22;;;;;;;10.80;6.43;;;12.00;99.90;;;;;;4863951;29;20045;-81
2022/04/30 11:07:48;;;;;;;11.25;6.90;;;11.70;99.90;;;;;;4885702;29;20076;-82
2022/04/30 11:10:15;;;;;;;8.00;5.53;;;11.60;99.90;;;;;;4896354;29;20527;-82
2022/04/30 11:12:41;;;;;;;6.50;5.20;;;11.60;99.90;;;;;;4881544;29;20055;-83
2022/04/30 11:15:08;;;;;;;9.43;5.77;;;11.50;99.90;;;;;;4898049;29;20139;-81
2022/04/30 11:17:47;;;;;;;8.87;5.57;;;11.50;99.90;;;;;;4882445;29;20041;-81
2022/04/30 11:20:23;;;;;;;9.70;5.80;;;11.40;99.90;;;;;;4897939;29;20116;-82
2022/04/30 11:23:02;;;;;;;8.23;5.23;;;11.40;99.90;;;;;;4896117;29;20457;-83
2022/04/30 11:25:35;;;;;;;8.27;4.70;;;11.40;99.90;;;;;;4898025;29;20055;-83
2022/04/30 11:28:04;;;;;;;7.27;4.70;;;11.40;99.90;;;;;;4882598;29;20052;-81
2022/04/30 11:30:34;;;;;;;8.73;5.30;;;11.50;99.90;;;;;;4882626;29;20620;-82
2022/04/30 11:32:59;;;;;;;7.60;5.00;;;11.40;99.90;;;;;;4898754;29;20437;-82
2022/04/30 11:35:25;;;;;;;7.13;5.43;;;11.50;99.90;;;;;;4882614;29;20048;-81
2022/04/30 11:37:51;;;;;;;6.60;5.37;;;11.60;99.90;;;;;;4897158;29;20050;-82
2022/04/30 11:40:20;;;;;;;6.60;4.50;;;11.70;99.90;;;;;;4864850;29;20126;-82
2022/04/30 11:42:55;;;;;;;7.90;5.20;;;11.70;99.90;;;;;;4895589;29;20492;-81
2022/04/30 11:45:31;;;;;;;8.73;5.13;;;11.70;99.90;;;;;;4894551;29;20053;-82
2022/04/30 11:47:57;;;;;;;7.20;5.50;;;11.70;99.90;;;;;;4890003;29;20526;-81
2022/04/30 11:50:24;;;;;;;7.77;4.93;;;11.60;99.90;;;;;;4888198;29;20048;-82
2022/04/30 11:52:50;;;;;;;5.87;4.90;;;11.70;99.90;;;;;;4895279;29;20056;-82
2022/04/30 11:55:17;;;;;;;7.43;5.83;;;11.70;99.90;;;;;;4896567;29;20059;-81
2022/04/30 11:57:44;;;;;;;8.67;5.57;;;11.70;99.90;;;;;;4881361;29;20052;-82
2022/04/30 12:00:12;;;;;;;6.83;5.10;;;11.80;99.90;;;;;;4892791;29;20524;-81
2022/04/30 12:02:41;;;;;;;6.87;5.00;;;11.80;99.90;;;;;;4892799;29;20059;-80
2022/04/30 12:05:08;;;;;;;7.13;5.53;;;11.80;99.90;;;;;;4897559;29;20096;-82
2022/04/30 12:07:44;;;;;;;7.60;5.97;;;11.80;99.90;;;;;;4897196;29;20048;-82
2022/04/30 12:10:28;;;;;;;8.03;5.13;;;11.90;99.90;;;;;;4893809;29;20119;-82
2022/04/30 12:12:54;;;;;;;6.17;4.87;;;11.90;99.90;;;;;;4896050;29;20040;-83
2022/04/30 12:15:21;;;;;;;7.57;5.47;;;11.90;99.90;;;;;;4898332;29;20076;-81
2022/04/30 12:26:11;;;;;;;7.47;5.00;;;11.80;99.90;;;;;;4887063;29;20068;-82
2022/04/30 12:28:48;;;;;;;7.47;4.80;;;11.70;99.90;;;;;;4889593;29;20422;-82
2022/04/30 12:31:13;;;;;;;8.77;5.73;;;11.70;99.90;;;;;;4863446;29;20101;-81
2022/04/30 12:33:51;;;;;;;7.63;5.40;;;11.70;99.90;;;;;;4878228;29;20445;-80
2022/04/30 12:36:18;;;;;;;9.83;5.33;;;11.70;99.90;;;;;;4881258;29;20049;-80
2022/04/30 12:38:54;;;;;;;7.07;5.57;;;11.80;99.90;;;;;;4898472;29;20048;-82
2022/04/30 12:41:21;;;;;;;9.60;5.83;;;11.80;99.90;;;;;;4896465;29;20049;-81
2022/04/30 12:43:47;;;;;;;7.00;5.20;;;11.80;99.90;;;;;;4881081;29;20045;-81
2022/04/30 12:46:23;;;;;;;7.80;4.40;;;11.70;99.90;;;;;;4875877;29;20173;-82
2022/04/30 12:48:50;;;;;;;5.40;4.30;;;11.70;99.90;;;;;;4891967;29;20374;-81
2022/04/30 12:51:17;;;;;;;6.83;5.33;;;11.70;99.90;;;;;;4880864;29;20445;-82
2022/04/30 12:53:43;;;;;;;8.97;5.40;;;11.80;99.90;;;;;;4896326;29;20087;-81
2022/04/30 12:56:09;;;;;;;7.87;5.67;;;11.80;99.90;;;;;;4896392;29;20053;-81
2022/04/30 12:58:35;;;;;;;7.87;5.70;;;11.90;99.90;;;;;;4879804;29;20145;-82
2022/04/30 13:01:01;;;;;;;9.97;5.47;;;11.90;99.90;;;;;;4881091;29;20045;-82
2022/04/30 13:03:28;;;;;;;8.97;6.13;;;12.00;99.90;;;;;;4895466;29;20111;-82
2022/04/30 13:05:54;;;;;;;7.60;5.63;;;12.00;99.90;;;;;;4893888;29;20056;-82
2022/04/30 13:08:20;;;;;;;10.87;5.70;;;12.00;99.90;;;;;;4880443;29;20503;-82
2022/04/30 13:13:33;;;;;;;14.73;5.47;;;11.90;99.90;;;;;;4864156;29;20121;-82
2022/04/30 13:16:09;;;;;;;8.40;5.17;;;12.00;99.90;;;;;;4858726;29;20442;-82
2022/04/30 13:18:36;;;;;;;10.17;5.33;;;12.00;99.90;;;;;;4881076;29;20388;-81
2022/04/30 13:21:03;;;;;;;5.57;5.07;;;12.00;99.90;;;;;;4895156;29;20059;-82
2022/04/30 13:23:29;;;;;;;7.67;4.63;;;12.10;99.90;;;;;;4895393;29;20041;-82
2022/04/30 13:25:55;;;;;;;6.77;4.77;;;12.10;99.90;;;;;;4889493;29;20128;-82
2022/04/30 13:28:21;;;;;;;8.77;5.20;;;12.10;99.90;;;;;;4876763;29;20128;-82
2022/04/30 13:30:47;;;;;;;7.00;5.50;;;12.10;99.90;;;;;;4877800;29;20044;-81
2022/04/30 13:33:12;;;;;;;8.10;4.97;;;12.10;99.90;;;;;;4896028;29;20085;-81
2022/04/30 13:35:38;;;;;;;7.60;5.40;;;12.10;99.90;;;;;;4896655;29;20037;-82